Time;durP1;ratioP1;P1;durP2;ratioP2;P2;SDS_P1;SDS_P2;PMS_P1;PMS_P2;Temp;Humidity;BMP_temperature;BMP_pressure;BME280_temperature;BME280_humidity;BME280_pressure;Samples;Min_cycle;Max_cycle;Signal;HPM_P1;HPM_P2
2023/04/09 00:01:58;;;;;;;22.42;18.38;;;13.90;59.20;;;;;;5044442;28;20062;-45
2023/04/09 00:04:24;;;;;;;20.50;17.10;;;13.80;59.20;;;;;;5045568;28;20040;-47
2023/04/09 00:06:53;;;;;;;18.95;16.30;;;13.70;59.20;;;;;;5045756;28;20046;-46
2023/04/09 00:09:30;;;;;;;20.17;17.08;;;13.70;59.20;;;;;;5044400;28;20064;-44
2023/04/09 00:12:00;;;;;;;20.13;16.77;;;13.60;59.20;;;;;;5051803;28;20045;-51
2023/04/09 00:14:34;;;;;;;;;;;13.50;59.20;;;;;;5051296;28;20107;-47
2023/04/09 00:17:04;;;;;;;16.65;14.65;;;13.50;59.30;;;;;;5050923;28;19928;-48
2023/04/09 00:19:33;;;;;;;18.35;15.40;;;13.40;58.80;;;;;;5045647;28;20055;-48
2023/04/09 00:22:03;;;;;;;19.95;16.33;;;13.20;58.90;;;;;;5051724;28;20045;-47
2023/04/09 00:24:29;;;;;;;16.65;14.77;;;13.10;59.00;;;;;;5050944;28;20041;-48
2023/04/09 00:26:58;;;;;;;16.90;14.52;;;13.10;58.90;;;;;;5049132;28;20047;-45
2023/04/09 00:29:28;;;;;;;16.75;14.55;;;12.90;58.80;;;;;;5042855;28;20512;-45
2023/04/09 00:31:54;;;;;;;18.63;15.25;;;12.80;58.70;;;;;;5034168;28;20048;-45
2023/04/09 00:34:26;;;;;;;16.27;14.48;;;12.70;58.70;;;;;;5044931;28;20059;-44
2023/04/09 00:36:55;;;;;;;18.80;15.27;;;12.60;58.80;;;;;;5050474;28;20697;-45
2023/04/09 00:39:22;;;;;;;20.27;16.08;;;12.50;58.80;;;;;;5049773;28;20045;-46
2023/04/09 00:41:49;;;;;;;19.13;14.60;;;12.40;58.80;;;;;;5045581;28;20068;-44
2023/04/09 00:44:17;;;;;;;18.92;15.82;;;12.30;58.90;;;;;;5048180;28;20049;-45
2023/04/09 00:46:46;;;;;;;18.92;14.68;;;12.20;59.10;;;;;;5033225;28;20180;-47
2023/04/09 00:49:13;;;;;;;20.85;16.92;;;12.10;59.20;;;;;;5040424;28;20049;-49
2023/04/09 00:51:40;;;;;;;17.67;15.18;;;12.00;59.40;;;;;;5043683;28;20047;-48
2023/04/09 00:54:11;;;;;;;18.30;15.80;;;11.90;59.40;;;;;;5050081;28;20064;-47
2023/04/09 00:56:43;;;;;;;20.05;16.85;;;11.80;59.70;;;;;;5050336;28;20063;-45
2023/04/09 00:59:13;;;;;;;19.45;15.77;;;11.80;59.90;;;;;;5043795;28;20056;-45
2023/04/09 01:01:40;;;;;;;21.40;16.42;;;11.70;59.80;;;;;;5032596;28;20044;-47
2023/04/09 01:04:09;;;;;;;20.88;17.30;;;11.60;59.90;;;;;;5043019;28;20045;-44
2023/04/09 01:06:48;;;;;;;21.58;17.08;;;11.60;59.90;;;;;;5050171;28;20056;-47
2023/04/09 01:09:27;;;;;;;19.92;15.98;;;11.50;60.40;;;;;;5049418;28;20448;-45
2023/04/09 01:12:22;;;;;;;21.73;17.65;;;11.50;60.70;;;;;;5048373;28;20076;-44
2023/04/09 01:15:05;;;;;;;24.48;18.58;;;11.40;61.10;;;;;;5045025;28;20064;-44
2023/04/09 01:17:40;;;;;;;23.15;19.05;;;11.40;61.40;;;;;;5050085;28;20040;-45
2023/04/09 01:20:31;;;;;;;27.58;21.33;;;11.40;61.30;;;;;;5028610;28;20048;-44
2023/04/09 01:23:09;;;;;;;23.17;18.83;;;11.40;61.90;;;;;;5046797;28;20413;-45
2023/04/09 01:26:16;;;;;;;24.30;18.50;;;11.40;62.30;;;;;;5032124;28;20413;-45
2023/04/09 01:28:54;;;;;;;26.08;19.23;;;11.40;62.30;;;;;;5019869;28;20140;-46
2023/04/09 01:31:34;;;;;;;25.73;19.52;;;11.30;61.50;;;;;;5015771;28;20048;-45
2023/04/09 01:34:05;;;;;;;25.40;19.65;;;11.30;62.00;;;;;;5044408;28;20041;-45
2023/04/09 01:36:32;;;;;;;30.38;21.58;;;11.30;61.90;;;;;;5041292;28;20045;-46
2023/04/09 01:39:03;;;;;;;30.40;20.70;;;11.30;61.90;;;;;;5045209;28;20047;-45
2023/04/09 01:41:32;;;;;;;32.38;23.75;;;11.30;62.30;;;;;;5045367;28;20033;-45
2023/04/09 01:44:01;;;;;;;28.60;21.85;;;11.30;62.50;;;;;;5045398;28;20132;-46
2023/04/09 01:46:34;;;;;;;27.08;21.88;;;11.30;63.40;;;;;;5049696;28;20119;-48
2023/04/09 01:49:05;;;;;;;27.60;20.85;;;11.30;63.10;;;;;;5048652;28;20033;-46
2023/04/09 01:51:32;;;;;;;27.05;20.85;;;11.30;62.80;;;;;;5042238;28;20036;-44
2023/04/09 01:54:01;;;;;;;26.98;20.50;;;11.30;62.60;;;;;;5031796;28;20049;-45
2023/04/09 01:56:40;;;;;;;26.15;20.80;;;11.30;62.40;;;;;;5031546;28;20053;-44
2023/04/09 01:59:07;;;;;;;25.08;19.77;;;11.30;62.70;;;;;;5048398;28;20056;-45
2023/04/09 02:01:42;;;;;;;25.90;19.92;;;11.20;62.10;;;;;;5028743;28;20516;-44
2023/04/09 02:04:24;;;;;;;25.50;19.52;;;11.20;62.20;;;;;;5047067;28;20041;-42
2023/04/09 02:06:57;;;;;;;24.92;19.05;;;11.20;62.30;;;;;;5049642;28;20455;-45
2023/04/09 02:09:28;;;;;;;26.02;18.88;;;11.10;62.00;;;;;;5047986;28;20057;-43
2023/04/09 02:12:01;;;;;;;26.10;18.83;;;11.10;61.80;;;;;;5050222;28;20140;-45
2023/04/09 02:14:33;;;;;;;22.35;17.48;;;11.10;61.70;;;;;;5031784;28;20099;-44
2023/04/09 02:17:00;;;;;;;22.15;16.60;;;11.00;61.50;;;;;;5044029;28;20049;-43
2023/04/09 02:19:44;;;;;;;20.25;17.08;;;11.00;61.30;;;;;;5039789;28;20048;-42
2023/04/09 02:22:12;;;;;;;25.30;18.95;;;10.90;61.70;;;;;;5024279;28;20144;-43
2023/04/09 02:24:42;;;;;;;25.02;18.02;;;10.90;61.40;;;;;;5049257;28;20041;-43
2023/04/09 02:27:17;;;;;;;20.42;17.35;;;10.80;61.30;;;;;;5048990;28;20132;-43
2023/04/09 02:29:44;;;;;;;22.65;19.00;;;10.80;61.40;;;;;;5045718;28;20130;-44
2023/04/09 02:32:13;;;;;;;24.13;18.63;;;10.70;61.60;;;;;;5045348;28;20049;-44
2023/04/09 02:34:42;;;;;;;26.70;19.13;;;10.70;62.00;;;;;;5028008;28;20052;-46
2023/04/09 02:37:09;;;;;;;24.63;19.27;;;10.70;62.30;;;;;;5048989;28;20528;-49
2023/04/09 02:39:43;;;;;;;24.75;18.92;;;10.60;62.30;;;;;;5030510;28;20044;-48
2023/04/09 02:42:11;;;;;;;24.77;18.13;;;10.60;62.40;;;;;;5049092;28;20576;-48
2023/04/09 02:44:40;;;;;;;23.08;18.05;;;10.60;62.30;;;;;;5052726;28;20052;-44
2023/04/09 02:47:07;;;;;;;23.83;17.98;;;10.60;62.30;;;;;;5053158;28;20090;-44
2023/04/09 02:49:40;;;;;;;20.48;16.77;;;10.60;62.20;;;;;;5033172;28;20041;-43
2023/04/09 02:52:10;;;;;;;22.83;17.53;;;10.60;62.20;;;;;;5032321;28;20140;-45
2023/04/09 02:54:38;;;;;;;19.65;16.90;;;10.60;62.20;;;;;;5035159;28;20063;-43
2023/04/09 02:57:04;;;;;;;21.65;15.63;;;10.60;62.10;;;;;;5035705;28;20049;-44
2023/04/09 02:59:33;;;;;;;19.38;16.00;;;10.60;62.00;;;;;;5047618;28;20060;-45
2023/04/09 03:01:59;;;;;;;22.42;16.92;;;10.60;62.00;;;;;;5035440;28;20053;-44
2023/04/09 03:04:30;;;;;;;22.50;16.35;;;10.60;62.00;;;;;;5031770;28;20033;-45
2023/04/09 03:06:56;;;;;;;22.38;16.75;;;10.60;61.90;;;;;;5052390;28;20037;-44
2023/04/09 03:09:25;;;;;;;20.25;15.57;;;10.50;61.70;;;;;;5033186;28;20509;-49
2023/04/09 03:11:52;;;;;;;21.63;16.83;;;10.50;61.50;;;;;;5053238;28;20037;-48
2023/04/09 03:14:18;;;;;;;20.50;15.15;;;10.50;61.30;;;;;;5048989;28;20041;-44
2023/04/09 03:16:45;;;;;;;18.63;15.73;;;10.40;61.10;;;;;;5051966;28;20408;-45
2023/04/09 03:19:11;;;;;;;20.20;14.73;;;10.30;61.00;;;;;;5033766;28;20052;-42
2023/04/09 03:21:40;;;;;;;17.20;14.10;;;10.30;60.90;;;;;;5027409;28;20049;-43
2023/04/09 03:24:12;;;;;;;19.63;14.43;;;10.20;60.80;;;;;;5034479;28;20037;-42
2023/04/09 03:26:41;;;;;;;18.30;13.35;;;10.10;60.70;;;;;;5031155;28;20658;-44
2023/04/09 03:29:11;;;;;;;17.80;14.30;;;10.10;60.60;;;;;;5024663;28;20042;-44
2023/04/09 03:31:38;;;;;;;17.05;13.77;;;10.00;60.60;;;;;;5052492;28;20041;-43
2023/04/09 03:34:09;;;;;;;15.73;13.15;;;9.90;60.50;;;;;;5012418;28;20061;-45
2023/04/09 03:36:38;;;;;;;16.48;12.82;;;9.90;60.60;;;;;;5047454;28;20417;-42
2023/04/09 03:39:29;;;;;;;17.23;13.55;;;9.80;60.50;;;;;;5032189;28;20064;-46
2023/04/09 03:41:58;;;;;;;17.83;13.32;;;9.70;60.40;;;;;;5048623;28;20675;-43
2023/04/09 03:44:30;;;;;;;15.60;13.23;;;9.60;60.50;;;;;;5033785;28;20225;-43
2023/04/09 03:47:07;;;;;;;17.45;14.30;;;9.60;60.60;;;;;;5050095;28;20120;-44
2023/04/09 03:49:36;;;;;;;16.20;12.00;;;9.50;60.60;;;;;;5030506;28;20132;-42
2023/04/09 03:52:20;;;;;;;14.77;11.45;;;9.40;60.60;;;;;;5034644;28;20041;-45
2023/04/09 03:54:55;;;;;;;16.58;11.40;;;9.40;60.70;;;;;;5047348;28;20048;-46
2023/04/09 03:57:26;;;;;;;15.65;12.40;;;9.30;60.70;;;;;;5032466;28;20041;-43
2023/04/09 03:59:56;;;;;;;15.13;12.25;;;9.30;60.70;;;;;;5031157;28;20053;-44
2023/04/09 04:02:30;;;;;;;14.85;12.20;;;9.20;60.80;;;;;;5032488;28;20041;-44
2023/04/09 04:05:13;;;;;;;14.57;12.23;;;9.20;60.90;;;;;;5048999;28;20043;-45
2023/04/09 04:07:45;;;;;;;13.68;11.55;;;9.10;60.80;;;;;;5042934;28;20037;-46
2023/04/09 04:10:19;;;;;;;14.63;11.07;;;9.10;60.80;;;;;;5047329;28;20038;-45
2023/04/09 04:12:46;;;;;;;15.27;11.85;;;9.10;60.90;;;;;;5045483;28;20045;-43
2023/04/09 04:15:45;;;;;;;14.82;12.73;;;9.00;61.00;;;;;;5033519;28;20040;-44
2023/04/09 04:18:13;;;;;;;19.42;13.82;;;9.00;61.00;;;;;;5032115;28;20094;-44
2023/04/09 04:20:46;;;;;;;17.58;13.52;;;9.00;61.00;;;;;;5033529;28;20073;-46
2023/04/09 04:23:14;;;;;;;21.02;15.23;;;8.90;61.10;;;;;;5046544;28;20049;-46
2023/04/09 04:25:57;;;;;;;24.30;16.92;;;8.90;61.10;;;;;;5033760;28;20471;-45
2023/04/09 04:28:31;;;;;;;20.75;16.00;;;8.90;61.50;;;;;;5032749;28;20582;-46
2023/04/09 04:31:10;;;;;;;20.67;16.33;;;8.90;61.30;;;;;;5028143;28;20048;-44
2023/04/09 04:33:40;;;;;;;21.98;14.88;;;8.90;61.50;;;;;;5019089;28;20041;-44
2023/04/09 04:36:13;;;;;;;22.30;16.23;;;8.80;61.20;;;;;;5033182;28;20091;-43
2023/04/09 04:38:47;;;;;;;18.58;15.13;;;8.80;61.20;;;;;;5045775;28;20523;-43
2023/04/09 04:41:48;;;;;;;18.05;13.88;;;8.80;61.30;;;;;;5023000;22;20056;-46
2023/04/09 04:44:23;;;;;;;21.75;14.65;;;8.80;61.30;;;;;;5013212;28;20072;-47
2023/04/09 04:46:58;;;;;;;18.52;14.18;;;8.70;61.30;;;;;;5029731;28;20045;-46
2023/04/09 04:49:29;;;;;;;19.63;14.55;;;8.70;61.40;;;;;;5021485;28;20048;-50
2023/04/09 04:52:01;;;;;;;17.58;13.07;;;8.70;61.60;;;;;;5012206;28;20049;-49
2023/04/09 04:54:31;;;;;;;18.67;14.30;;;8.70;61.90;;;;;;5015796;28;20135;-48
2023/04/09 04:57:01;;;;;;;19.35;14.35;;;8.70;61.90;;;;;;5030659;28;20452;-46
2023/04/09 04:59:39;;;;;;;19.38;14.70;;;8.80;62.10;;;;;;5017219;28;20103;-50
2023/04/09 05:02:11;;;;;;;19.85;14.98;;;8.70;62.00;;;;;;5009405;28;20045;-46
2023/04/09 05:04:59;;;;;;;19.25;13.80;;;8.70;62.00;;;;;;5011403;28;20091;-46
2023/04/09 05:07:37;;;;;;;18.70;13.60;;;8.70;61.90;;;;;;5013311;28;20064;-46
2023/04/09 05:10:09;;;;;;;16.55;13.25;;;8.70;61.90;;;;;;5029212;28;20054;-46
2023/04/09 05:12:44;;;;;;;16.58;13.68;;;8.70;62.00;;;;;;5014176;28;20557;-46
2023/04/09 05:15:28;;;;;;;;;;;;;;;;;;;;;
2023/04/09 05:17:58;;;;;;;15.55;12.05;;;8.70;62.00;;;;;;5031071;28;20076;-49
2023/04/09 05:20:28;;;;;;;18.08;12.73;;;8.70;62.00;;;;;;5044171;28;20068;-49
2023/04/09 05:23:09;;;;;;;18.23;13.68;;;8.60;62.00;;;;;;5014817;28;20049;-48
2023/04/09 05:25:44;;;;;;;18.50;13.95;;;8.60;62.00;;;;;;5020954;28;20084;-46
2023/04/09 05:28:19;;;;;;;16.65;13.60;;;8.60;62.10;;;;;;5021321;28;20041;-50
2023/04/09 05:30:55;;;;;;;17.38;13.77;;;8.60;62.10;;;;;;5025137;28;20037;-46
2023/04/09 05:33:22;;;;;;;16.58;12.15;;;8.60;62.30;;;;;;5029985;28;20045;-46
2023/04/09 05:35:50;;;;;;;18.60;13.95;;;8.60;62.40;;;;;;5007879;28;20129;-45
2023/04/09 05:38:17;;;;;;;18.30;13.77;;;8.60;62.50;;;;;;5028760;28;20052;-46
2023/04/09 05:40:51;;;;;;;21.00;14.25;;;8.60;62.60;;;;;;5018220;28;20053;-46
2023/04/09 05:43:18;;;;;;;19.67;15.13;;;8.70;62.70;;;;;;5015065;28;20037;-47
2023/04/09 05:45:47;;;;;;;19.48;15.13;;;8.60;62.80;;;;;;5012857;28;20034;-45
2023/04/09 05:48:13;;;;;;;20.50;15.77;;;8.60;63.00;;;;;;5029958;28;20040;-48
2023/04/09 05:50:51;;;;;;;20.90;15.85;;;8.70;63.10;;;;;;5024230;28;20532;-47
2023/04/09 05:53:25;;;;;;;20.27;16.85;;;8.70;63.50;;;;;;5015068;28;20571;-47
2023/04/09 05:55:51;;;;;;;26.35;18.13;;;8.70;63.10;;;;;;5009919;28;20065;-47
2023/04/09 05:58:22;;;;;;;22.27;17.85;;;8.70;63.20;;;;;;5025406;28;20586;-53
2023/04/09 06:00:51;;;;;;;24.83;18.17;;;8.70;63.30;;;;;;5005544;28;20049;-51
2023/04/09 06:03:18;;;;;;;22.73;17.63;;;8.70;63.40;;;;;;5024868;28;20053;-53
2023/04/09 06:05:48;;;;;;;24.05;18.17;;;8.80;63.60;;;;;;5022209;28;20048;-49
2023/04/09 06:08:18;;;;;;;25.40;18.42;;;8.90;63.70;;;;;;5020606;28;20046;-51
2023/04/09 06:10:45;;;;;;;23.88;17.63;;;8.90;64.00;;;;;;5022753;28;20056;-52
2023/04/09 06:13:18;;;;;;;23.40;18.02;;;8.90;63.90;;;;;;5024329;28;20494;-54
2023/04/09 06:15:48;;;;;;;21.92;17.83;;;9.00;64.20;;;;;;5018075;28;20441;-49
2023/04/09 06:18:15;;;;;;;25.75;18.17;;;9.00;64.00;;;;;;5003975;28;20476;-49
2023/04/09 06:20:44;;;;;;;23.92;17.60;;;9.00;64.10;;;;;;5025149;28;20128;-50
2023/04/09 06:23:13;;;;;;;22.50;17.25;;;9.10;64.10;;;;;;5021412;28;20421;-49
2023/04/09 06:25:40;;;;;;;25.55;18.70;;;9.20;64.40;;;;;;5028756;28;20433;-51
2023/04/09 06:28:11;;;;;;;22.40;18.33;;;9.20;64.30;;;;;;5028159;28;20033;-49
2023/04/09 06:30:38;;;;;;;24.13;18.73;;;9.20;64.40;;;;;;5019767;28;20050;-50
2023/04/09 06:33:05;;;;;;;25.55;21.02;;;9.30;64.50;;;;;;5027566;28;20033;-51
2023/04/09 06:35:34;;;;;;;28.60;24.13;;;9.30;65.00;;;;;;5016006;28;20042;-50
2023/04/09 06:38:00;;;;;;;30.00;22.42;;;9.40;65.40;;;;;;5028673;28;20057;-53
2023/04/09 06:40:30;;;;;;;31.73;23.80;;;9.40;65.50;;;;;;5037882;28;20075;-53
2023/04/09 06:42:56;;;;;;;30.48;24.42;;;9.50;65.80;;;;;;5035513;28;20059;-50
2023/04/09 06:45:30;;;;;;;31.85;25.58;;;9.60;66.00;;;;;;5014601;28;20128;-51
2023/04/09 06:47:56;;;;;;;31.02;25.45;;;9.70;66.40;;;;;;5003486;28;20049;-52
2023/04/09 06:50:23;;;;;;;32.42;25.52;;;9.70;66.40;;;;;;5026598;28;20819;-52
2023/04/09 06:52:53;;;;;;;33.83;25.95;;;9.80;66.70;;;;;;5028033;28;20037;-50
2023/04/09 06:55:20;;;;;;;36.53;25.60;;;9.90;66.70;;;;;;5030409;28;20452;-50
2023/04/09 06:57:47;;;;;;;35.63;24.90;;;10.00;66.80;;;;;;5023562;28;20468;-54
2023/04/09 07:00:14;;;;;;;32.95;26.70;;;10.00;66.80;;;;;;5037529;28;20041;-51
2023/04/09 07:02:41;;;;;;;32.88;24.98;;;10.10;67.00;;;;;;5026076;28;20041;-54
2023/04/09 07:05:08;;;;;;;34.33;26.50;;;10.10;67.00;;;;;;5024736;28;20099;-53
2023/04/09 07:07:34;;;;;;;32.28;25.02;;;10.20;67.10;;;;;;5029617;28;20045;-54
2023/04/09 07:10:01;;;;;;;32.20;24.90;;;10.30;67.20;;;;;;5028427;28;20048;-52
2023/04/09 07:12:30;;;;;;;31.10;24.92;;;10.30;67.10;;;;;;5027128;28;20045;-51
2023/04/09 07:15:06;;;;;;;27.40;22.50;;;10.30;67.20;;;;;;5024571;28;20049;-53
2023/04/09 07:17:34;;;;;;;31.95;23.20;;;10.40;67.70;;;;;;5027620;28;20404;-50
2023/04/09 07:20:01;;;;;;;28.92;22.42;;;10.50;67.10;;;;;;5018766;28;20076;-51
2023/04/09 07:22:28;;;;;;;28.70;22.33;;;10.50;67.00;;;;;;5026816;28;20045;-53
2023/04/09 07:24:55;;;;;;;28.38;21.52;;;10.60;67.00;;;;;;5014938;28;20042;-54
2023/04/09 07:27:26;;;;;;;29.17;22.70;;;10.60;67.10;;;;;;5031039;28;20516;-53
2023/04/09 07:30:09;;;;;;;;;;;;;;;;;;;;;
2023/04/09 07:32:36;;;;;;;25.90;21.10;;;10.70;67.20;;;;;;5027030;28;20054;-54
2023/04/09 07:35:08;;;;;;;24.38;19.27;;;10.80;67.10;;;;;;5025278;28;20687;-52
2023/04/09 07:37:37;;;;;;;23.95;20.33;;;10.80;67.00;;;;;;5015463;28;20038;-54
2023/04/09 07:40:04;;;;;;;26.13;20.20;;;10.90;66.90;;;;;;5026002;28;20089;-54
2023/04/09 07:42:31;;;;;;;26.95;19.23;;;10.90;66.90;;;;;;5030959;28;20045;-54
2023/04/09 07:45:02;;;;;;;22.45;17.58;;;11.00;66.70;;;;;;5038554;28;20033;-54
2023/04/09 07:47:31;;;;;;;26.60;19.83;;;11.00;66.50;;;;;;5033402;28;20041;-53
2023/04/09 07:50:00;;;;;;;23.30;17.35;;;11.10;66.50;;;;;;5032899;28;20039;-54
2023/04/09 07:52:33;;;;;;;22.58;17.65;;;11.20;66.40;;;;;;5024243;28;20155;-51
2023/04/09 07:55:00;;;;;;;24.00;17.75;;;11.20;66.20;;;;;;5025753;28;20041;-53
2023/04/09 07:57:27;;;;;;;23.02;17.23;;;11.30;66.10;;;;;;5033399;28;20045;-54
2023/04/09 07:59:58;;;;;;;25.63;17.48;;;11.30;66.10;;;;;;5040235;28;20051;-54
2023/04/09 08:02:27;;;;;;;19.80;15.93;;;11.40;66.10;;;;;;5035340;28;20052;-53
2023/04/09 08:04:55;;;;;;;20.50;15.05;;;11.50;66.10;;;;;;5022173;28;20038;-49
2023/04/09 08:07:22;;;;;;;21.02;14.60;;;11.50;65.90;;;;;;5036114;28;20436;-50
2023/04/09 08:09:49;;;;;;;19.50;15.07;;;11.60;65.60;;;;;;5043772;28;20041;-54
2023/04/09 08:12:22;;;;;;;20.20;15.70;;;11.60;65.70;;;;;;5043703;28;20045;-53
2023/04/09 08:14:49;;;;;;;21.58;15.38;;;11.70;65.80;;;;;;5024168;28;20056;-50
2023/04/09 08:17:21;;;;;;;19.08;14.85;;;11.80;65.50;;;;;;5052639;28;20052;-53
2023/04/09 08:19:51;;;;;;;18.40;14.63;;;11.80;65.30;;;;;;5035439;28;20041;-53
2023/04/09 08:22:18;;;;;;;20.85;15.35;;;11.90;64.90;;;;;;5035519;28;20042;-53
2023/04/09 08:24:50;;;;;;;23.42;14.07;;;12.00;64.70;;;;;;5028697;28;20060;-51
2023/04/09 08:27:17;;;;;;;21.20;15.18;;;12.10;64.50;;;;;;5052496;28;20094;-54
2023/04/09 08:29:45;;;;;;;19.42;14.45;;;12.10;64.30;;;;;;5034501;28;20568;-51
2023/04/09 08:32:11;;;;;;;23.98;15.30;;;12.20;64.40;;;;;;5025762;28;20056;-54
2023/04/09 08:34:41;;;;;;;20.40;14.43;;;12.20;64.50;;;;;;5023901;28;20057;-54
2023/04/09 08:37:07;;;;;;;18.70;13.95;;;12.30;64.40;;;;;;5016250;28;20037;-51
2023/04/09 08:39:35;;;;;;;23.08;15.65;;;12.40;64.30;;;;;;5030019;28;20037;-54
2023/04/09 08:42:03;;;;;;;19.52;15.10;;;12.40;64.00;;;;;;5031821;28;20037;-52
2023/04/09 08:44:30;;;;;;;21.30;15.00;;;12.50;63.90;;;;;;5030081;28;20041;-51
2023/04/09 08:46:57;;;;;;;21.33;14.82;;;12.50;63.90;;;;;;5022863;28;20061;-53
2023/04/09 08:49:25;;;;;;;18.50;14.73;;;12.60;63.80;;;;;;5031251;28;20033;-50
2023/04/09 08:51:52;;;;;;;22.70;14.40;;;12.60;63.60;;;;;;5034279;28;20045;-54
2023/04/09 08:54:22;;;;;;;16.50;13.77;;;12.70;63.50;;;;;;5027509;28;20521;-53
2023/04/09 08:56:49;;;;;;;20.75;14.95;;;12.70;63.70;;;;;;5024395;28;20124;-54
2023/04/09 08:59:19;;;;;;;22.20;14.95;;;12.80;63.70;;;;;;5031146;28;20480;-51
2023/04/09 09:01:51;;;;;;;18.17;14.35;;;12.80;63.40;;;;;;5030480;28;20049;-54
2023/04/09 09:04:18;;;;;;;19.38;13.57;;;12.90;63.50;;;;;;5019144;28;20050;-50
2023/04/09 09:06:45;;;;;;;19.52;15.30;;;13.00;63.60;;;;;;5024052;28;20048;-53
2023/04/09 09:09:17;;;;;;;19.60;13.95;;;13.00;63.60;;;;;;5031410;28;20040;-51
2023/04/09 09:11:47;;;;;;;20.58;14.98;;;13.10;63.50;;;;;;5031011;28;20037;-54
2023/04/09 09:14:16;;;;;;;19.30;13.68;;;13.20;63.30;;;;;;5022978;28;20037;-50
2023/04/09 09:17:02;;;;;;;19.08;14.60;;;13.20;63.20;;;;;;5029973;28;20057;-50
2023/04/09 09:19:33;;;;;;;17.17;13.25;;;13.30;63.10;;;;;;5030355;28;20080;-50
2023/04/09 09:22:01;;;;;;;16.30;12.75;;;13.30;62.90;;;;;;5034928;28;20041;-51
2023/04/09 09:24:31;;;;;;;16.67;12.98;;;13.40;63.00;;;;;;5009244;28;20038;-51
2023/04/09 09:26:58;;;;;;;14.38;11.38;;;13.40;62.90;;;;;;5019748;28;20398;-51
2023/04/09 09:29:26;;;;;;;14.90;12.60;;;13.50;62.70;;;;;;5022420;28;20485;-50
2023/04/09 09:31:54;;;;;;;14.05;11.57;;;13.60;62.30;;;;;;5037820;28;20037;-50
2023/04/09 09:34:22;;;;;;;12.82;11.13;;;13.60;62.10;;;;;;5032332;28;20037;-50
2023/04/09 09:36:52;;;;;;;14.45;11.13;;;13.70;62.20;;;;;;5030540;28;20099;-53
2023/04/09 09:39:18;;;;;;;12.95;11.15;;;13.80;61.90;;;;;;5022157;28;20524;-51
2023/04/09 09:41:45;;;;;;;14.50;11.07;;;13.90;61.20;;;;;;5011205;28;20041;-54
2023/04/09 09:44:30;;;;;;;11.75;10.20;;;13.90;61.10;;;;;;5028397;28;20041;-54
2023/04/09 09:47:00;;;;;;;12.40;9.68;;;14.10;60.20;;;;;;5036118;28;20052;-50
2023/04/09 09:49:26;;;;;;;13.85;10.70;;;14.20;60.70;;;;;;5040994;28;20048;-52
2023/04/09 09:51:58;;;;;;;12.65;10.40;;;14.30;60.80;;;;;;5037290;28;20068;-54
2023/04/09 09:54:27;;;;;;;12.60;10.53;;;14.40;60.30;;;;;;5039915;28;20029;-52
2023/04/09 09:57:03;;;;;;;11.43;10.02;;;14.50;60.00;;;;;;5033872;28;20299;-50
2023/04/09 09:59:33;;;;;;;12.23;9.07;;;14.60;59.30;;;;;;5037324;28;20056;-50
2023/04/09 10:02:04;;;;;;;11.80;9.60;;;14.70;59.10;;;;;;5043053;28;20044;-52
2023/04/09 10:04:35;;;;;;;14.02;10.15;;;14.80;58.70;;;;;;5034254;28;20049;-54
2023/04/09 10:07:04;;;;;;;13.25;10.35;;;14.90;58.70;;;;;;5035093;28;20512;-52
2023/04/09 10:09:34;;;;;;;11.60;9.20;;;15.00;58.80;;;;;;5037886;28;20471;-50
2023/04/09 10:12:05;;;;;;;10.70;8.30;;;15.20;58.90;;;;;;5034063;28;20037;-55
2023/04/09 10:14:34;;;;;;;10.70;7.65;;;15.30;58.20;;;;;;5033508;28;20072;-53
2023/04/09 10:17:02;;;;;;;8.82;7.53;;;15.40;57.50;;;;;;5035067;28;20045;-54
2023/04/09 10:19:34;;;;;;;10.60;8.10;;;15.50;57.30;;;;;;5035617;28;20037;-51
2023/04/09 10:22:10;;;;;;;8.50;7.27;;;15.60;56.50;;;;;;5035035;28;20549;-52
2023/04/09 10:24:37;;;;;;;8.80;7.30;;;15.80;56.70;;;;;;5029177;28;20057;-51
2023/04/09 10:27:12;;;;;;;8.20;6.55;;;15.90;56.40;;;;;;5029347;28;20037;-54
2023/04/09 10:29:44;;;;;;;8.68;6.22;;;16.00;54.90;;;;;;5028470;28;20501;-50
2023/04/09 10:32:11;;;;;;;9.45;6.60;;;16.20;55.50;;;;;;5038915;28;20497;-53
2023/04/09 10:34:40;;;;;;;9.73;6.72;;;16.30;54.80;;;;;;5034946;28;20591;-50
2023/04/09 10:37:08;;;;;;;7.50;5.53;;;16.40;54.10;;;;;;5042194;28;20497;-54
2023/04/09 10:39:42;;;;;;;7.13;5.50;;;16.50;53.70;;;;;;5039585;28;20045;-52
2023/04/09 10:42:20;;;;;;;6.40;5.25;;;16.60;53.00;;;;;;5038072;28;20128;-54
2023/04/09 10:45:03;;;;;;;6.72;5.88;;;16.70;52.50;;;;;;5032818;28;20042;-50
2023/04/09 10:47:31;;;;;;;;;;;16.80;51.20;;;;;;5038526;28;20045;-50
2023/04/09 10:49:57;;;;;;;4.95;4.45;;;17.00;53.40;;;;;;5037864;28;19960;-51
2023/04/09 10:52:29;;;;;;;5.75;4.28;;;16.90;51.70;;;;;;5032393;28;20044;-51
2023/04/09 10:54:57;;;;;;;5.43;4.60;;;17.00;51.00;;;;;;5038650;28;20061;-53
2023/04/09 10:57:25;;;;;;;7.13;5.10;;;17.00;50.70;;;;;;5040502;28;20528;-51
2023/04/09 10:59:54;;;;;;;5.65;4.72;;;17.00;50.20;;;;;;5036132;28;20127;-51
2023/04/09 11:02:30;;;;;;;6.15;5.22;;;17.00;49.90;;;;;;5022489;28;20068;-53
2023/04/09 11:05:06;;;;;;;7.13;5.13;;;17.10;48.70;;;;;;5041015;28;20045;-53
2023/04/09 11:07:39;;;;;;;5.45;4.93;;;17.00;49.10;;;;;;5038615;28;20046;-53
2023/04/09 11:10:06;;;;;;;6.00;5.20;;;17.00;49.40;;;;;;5043262;28;20120;-51
2023/04/09 11:12:33;;;;;;;6.10;5.22;;;17.00;49.40;;;;;;5041376;28;20037;-52
2023/04/09 11:14:59;;;;;;;5.80;5.18;;;17.00;49.40;;;;;;5021538;28;20052;-52
2023/04/09 11:17:26;;;;;;;6.30;5.40;;;17.00;49.10;;;;;;5031610;28;20514;-53
2023/04/09 11:19:54;;;;;;;7.22;4.43;;;16.90;49.30;;;;;;5019908;28;20092;-54
2023/04/09 11:22:23;;;;;;;7.35;5.80;;;16.90;49.10;;;;;;5031986;28;20057;-52
2023/04/09 11:24:52;;;;;;;6.72;4.78;;;16.90;49.00;;;;;;5031666;28;20064;-53
2023/04/09 11:27:19;;;;;;;5.72;4.78;;;16.90;48.90;;;;;;5038980;28;20552;-50
2023/04/09 11:29:46;;;;;;;5.40;4.22;;;16.90;49.60;;;;;;5038691;28;20056;-51
2023/04/09 11:32:13;;;;;;;5.88;4.93;;;16.90;49.30;;;;;;5035450;28;20456;-50
2023/04/09 11:34:39;;;;;;;6.30;5.00;;;16.90;48.90;;;;;;5039532;28;20525;-53
2023/04/09 11:37:12;;;;;;;5.60;4.45;;;16.90;48.60;;;;;;5036137;28;20559;-53
2023/04/09 11:39:42;;;;;;;5.05;4.38;;;16.90;48.00;;;;;;5031680;28;20045;-52
2023/04/09 11:42:15;;;;;;;5.25;4.55;;;16.90;48.10;;;;;;5032254;28;20045;-54
2023/04/09 11:44:45;;;;;;;5.28;4.43;;;17.00;47.90;;;;;;5029009;28;20049;-54
2023/04/09 11:47:13;;;;;;;6.15;4.95;;;17.00;48.30;;;;;;5033479;28;20046;-51
2023/04/09 11:49:40;;;;;;;4.88;4.32;;;17.00;48.40;;;;;;5032409;28;20057;-52
2023/04/09 11:52:06;;;;;;;5.80;5.18;;;17.00;48.10;;;;;;5029709;28;20080;-53
2023/04/09 11:54:33;;;;;;;5.50;4.88;;;17.00;47.90;;;;;;5028477;28;20049;-52
2023/04/09 11:57:02;;;;;;;6.80;5.18;;;17.10;48.30;;;;;;5027489;28;20405;-51
2023/04/09 11:59:29;;;;;;;7.68;5.53;;;17.10;48.50;;;;;;5023053;28;20049;-53
2023/04/09 12:02:00;;;;;;;8.45;6.55;;;17.10;48.40;;;;;;5032068;28;20572;-53
2023/04/09 12:04:27;;;;;;;7.07;5.60;;;17.20;48.50;;;;;;5037724;28;20428;-53
2023/04/09 12:06:57;;;;;;;6.68;5.63;;;17.20;48.70;;;;;;5042112;28;20045;-52
2023/04/09 12:09:24;;;;;;;6.90;5.38;;;17.20;48.70;;;;;;5023326;28;20112;-51
2023/04/09 12:11:51;;;;;;;8.98;5.90;;;17.30;49.30;;;;;;5030153;28;20091;-54
2023/04/09 12:14:20;;;;;;;7.45;6.68;;;17.40;48.90;;;;;;5025477;28;20041;-51
2023/04/09 12:16:50;;;;;;;6.97;6.10;;;17.40;48.60;;;;;;5026872;28;20048;-54
2023/04/09 12:19:19;;;;;;;6.03;5.43;;;17.60;48.40;;;;;;5025655;28;20041;-51
2023/04/09 12:21:51;;;;;;;6.93;5.70;;;17.60;48.40;;;;;;5028248;28;20143;-53
2023/04/09 12:24:20;;;;;;;7.15;5.97;;;17.70;47.70;;;;;;5026254;28;20049;-54
2023/04/09 12:26:47;;;;;;;6.75;5.40;;;17.80;48.20;;;;;;5023481;28;20038;-54
2023/04/09 12:29:15;;;;;;;7.05;5.57;;;17.90;48.30;;;;;;5026076;28;20040;-51
2023/04/09 12:31:44;;;;;;;6.40;5.18;;;18.00;47.50;;;;;;5040801;28;20124;-54
2023/04/09 12:34:11;;;;;;;6.97;5.70;;;18.10;47.80;;;;;;5026949;28;20038;-55
2023/04/09 12:36:40;;;;;;;5.97;4.93;;;18.20;47.40;;;;;;5032569;28;20508;-54
2023/04/09 12:39:08;;;;;;;5.75;5.15;;;18.30;47.30;;;;;;5035425;28;20045;-54
2023/04/09 12:41:37;;;;;;;6.80;5.22;;;18.50;47.30;;;;;;5043008;28;20235;-54
2023/04/09 12:44:04;;;;;;;9.52;5.40;;;18.60;47.50;;;;;;5023393;28;20037;-54
2023/04/09 12:46:31;;;;;;;6.28;5.22;;;18.80;47.30;;;;;;5019474;28;20091;-54
2023/04/09 12:48:58;;;;;;;6.55;5.22;;;18.90;47.20;;;;;;5031817;28;20099;-54
2023/04/09 12:51:27;;;;;;;6.57;5.50;;;19.10;46.40;;;;;;5023803;28;20694;-51
2023/04/09 12:53:54;;;;;;;6.35;5.05;;;19.20;47.00;;;;;;5031612;28;20045;-54